Time;durP1;ratioP1;P1;durP2;ratioP2;P2;SDS_P1;SDS_P2;PMS_P1;PMS_P2;Temp;Humidity;BMP_temperature;BMP_pressure;BME280_temperature;BME280_humidity;BME280_pressure;Samples;Min_cycle;Max_cycle;Signal;HPM_P1;HPM_P2
2021/07/21 00:01:35;;;;;;;10.73;4.95;;;;;;;29.46;36.16;101276.97;4396249;32;20114;-90
2021/07/21 00:04:01;;;;;;;13.30;4.82;;;;;;;29.66;35.79;101281.34;4408228;32;20093;-89
2021/07/21 00:06:28;;;;;;;17.62;5.30;;;;;;;29.52;35.98;101288.44;4406128;32;20058;-91
2021/07/21 00:08:54;;;;;;;9.15;4.97;;;;;;;29.45;36.49;101286.22;4393315;32;20080;-90
2021/07/21 00:14:19;;;;;;;14.38;6.10;;;;;;;29.43;37.05;101291.78;4393460;32;20457;-91
2021/07/21 00:16:54;;;;;;;12.93;6.45;;;;;;;29.28;37.61;101286.56;4405128;32;20068;-90
2021/07/21 00:20:05;;;;;;;13.52;6.47;;;;;;;29.37;38.10;101288.22;4409918;32;20046;-91
2021/07/21 00:22:07;;;;;;;20.37;6.90;;;;;;;29.27;38.33;101293.69;4405441;32;20159;-90
2021/07/21 00:24:33;;;;;;;19.80;6.62;;;;;;;29.31;38.39;101302.03;4393849;32;20104;-90
2021/07/21 00:26:59;;;;;;;23.10;8.70;;;;;;;29.14;38.80;101298.69;4411709;32;20046;-89
2021/07/21 00:29:25;;;;;;;16.12;7.57;;;;;;;29.13;39.35;101300.00;4398083;32;20085;-89
2021/07/21 00:31:51;;;;;;;16.02;8.30;;;;;;;29.03;39.69;101296.75;4399125;32;20467;-89
2021/07/21 00:34:16;;;;;;;22.02;9.88;;;;;;;29.05;40.26;101296.22;4394357;32;20462;-88
2021/07/21 00:36:42;;;;;;;18.17;9.13;;;;;;;29.06;40.47;101295.69;4393547;32;20087;-88
2021/07/21 00:39:08;;;;;;;16.95;8.65;;;;;;;28.93;41.05;101304.31;4404289;32;20390;-89
2021/07/21 00:41:33;;;;;;;21.37;9.20;;;;;;;28.91;41.21;101301.97;4391561;32;20444;-88
2021/07/21 00:43:59;;;;;;;24.37;9.38;;;;;;;28.92;41.23;101306.44;4407095;32;20464;-89
2021/07/21 00:46:25;;;;;;;22.20;9.55;;;;;;;28.82;41.52;101302.41;4392205;32;20420;-89
2021/07/21 00:48:50;;;;;;;18.40;9.73;;;;;;;28.84;41.62;101299.72;4406664;32;20538;-89
2021/07/21 00:51:17;;;;;;;17.58;9.32;;;;;;;28.80;41.56;101299.25;4407763;32;20029;-88
2021/07/21 00:53:44;;;;;;;20.83;10.55;;;;;;;28.78;41.96;101307.72;4409732;32;20410;-88
2021/07/21 00:56:10;;;;;;;15.85;9.70;;;;;;;28.65;42.58;101301.87;4406526;32;20176;-88
2021/07/21 00:58:36;;;;;;;25.45;10.82;;;;;;;28.69;42.42;101305.22;4408091;32;20457;-89
2021/07/21 01:01:02;;;;;;;26.20;11.23;;;;;;;28.63;42.51;101298.75;4408872;32;20050;-89
2021/07/21 01:03:30;;;;;;;28.38;10.60;;;;;;;28.58;42.73;101293.84;4398875;32;20524;-89
2021/07/21 01:05:57;;;;;;;22.58;10.43;;;;;;;28.53;43.05;101297.59;4408627;32;20100;-87
2021/07/21 01:08:23;;;;;;;23.20;10.75;;;;;;;28.54;42.99;101299.19;4398899;32;20428;-90
2021/07/21 01:11:07;;;;;;;23.52;10.90;;;;;;;28.46;43.09;101304.03;4410216;32;20041;-90
2021/07/21 01:28:17;;;;;;;30.55;13.00;;;;;;;28.39;44.20;101318.34;4408848;32;20139;-88
2021/07/21 01:30:44;;;;;;;28.20;14.25;;;;;;;28.18;44.59;101311.53;4398943;32;20022;-89
2021/07/21 01:33:13;;;;;;;27.58;14.87;;;;;;;27.82;45.49;101313.06;4395358;32;20077;-89
2021/07/21 01:38:33;;;;;;;36.05;13.88;;;;;;;28.16;44.80;101314.97;3975548;32;15207695;-75
2021/07/21 01:41:03;;;;;;;27.15;13.95;;;;;;;27.83;45.53;101323.31;4433904;32;20055;-78
2021/07/21 01:43:32;;;;;;;28.15;13.43;;;;;;;28.06;45.03;101328.28;4436813;32;20034;-78
2021/07/21 01:46:00;;;;;;;26.98;13.70;;;;;;;28.03;45.17;101329.38;4438243;32;20064;-78
2021/07/21 01:48:31;;;;;;;33.08;14.18;;;;;;;28.15;44.99;101332.91;4433451;32;20079;-77
2021/07/21 01:50:59;;;;;;;31.05;14.52;;;;;;;28.06;45.23;101330.38;4435071;32;20037;-75
2021/07/21 01:53:27;;;;;;;31.67;14.10;;;;;;;27.89;45.60;101315.37;4432625;32;20066;-75
2021/07/21 01:55:54;;;;;;;30.85;14.65;;;;;;;27.93;45.65;101322.41;4433373;32;20115;-76
2021/07/21 01:58:20;;;;;;;30.17;14.35;;;;;;;27.75;45.94;101334.72;4432045;32;20128;-75
2021/07/21 02:00:49;;;;;;;32.78;14.55;;;;;;;27.35;46.82;101327.03;4430582;32;20595;-77
2021/07/21 02:03:17;;;;;;;32.67;14.87;;;;;;;27.83;45.79;101335.69;4419081;32;20061;-75
2021/07/21 02:05:43;;;;;;;33.40;15.38;;;;;;;27.95;45.49;101330.56;4422820;32;20065;-76
2021/07/21 02:08:11;;;;;;;29.05;14.48;;;;;;;27.82;45.72;101339.13;4421010;32;20034;-75
2021/07/21 02:10:36;;;;;;;31.70;15.57;;;;;;;27.72;45.95;101335.00;4417607;32;20069;-77
2021/07/21 02:13:07;;;;;;;26.83;15.15;;;;;;;27.64;46.19;101336.97;4420172;32;20143;-77
2021/07/21 02:15:34;;;;;;;33.78;15.65;;;;;;;27.93;45.60;101331.09;4420181;32;20065;-75
2021/07/21 02:18:01;;;;;;;27.55;15.30;;;;;;;27.81;45.75;101341.22;4418030;32;20039;-75
2021/07/21 02:20:28;;;;;;;27.55;14.57;;;;;;;27.78;45.84;101342.31;4414169;32;20014;-78
2021/07/21 02:22:54;;;;;;;32.53;15.65;;;;;;;27.97;45.43;101340.25;4423428;32;20073;-78
2021/07/21 02:25:23;;;;;;;35.80;16.50;;;;;;;27.90;45.47;101348.75;4420649;32;20085;-76
2021/07/21 02:27:49;;;;;;;31.37;15.55;;;;;;;27.78;45.91;101345.19;4420748;32;20101;-75
2021/07/21 02:30:15;;;;;;;30.30;14.75;;;;;;;27.52;46.31;101347.09;4416013;32;20506;-77
2021/07/21 02:32:49;;;;;;;32.53;14.30;;;;;;;27.59;46.27;101347.28;4421121;32;20064;-76
2021/07/21 02:35:19;;;;;;;26.63;14.77;;;;;;;27.89;45.63;101347.19;4417230;32;20060;-76
2021/07/21 02:37:46;;;;;;;26.95;14.30;;;;;;;27.81;45.68;101347.00;4418135;32;20078;-76
2021/07/21 02:40:12;;;;;;;28.27;14.20;;;;;;;27.89;45.58;101344.31;4416160;32;20094;-77
2021/07/21 02:42:38;;;;;;;30.52;14.07;;;;;;;27.85;45.63;101344.56;4419552;32;20033;-78
2021/07/21 02:45:05;;;;;;;27.02;13.55;;;;;;;27.90;45.57;101337.97;4419372;32;20433;-77
2021/07/21 02:47:30;;;;;;;25.37;14.52;;;;;;;27.99;45.45;101346.28;4417300;32;20094;-77
2021/07/21 02:49:56;;;;;;;27.62;13.88;;;;;;;27.87;45.53;101336.19;4404477;32;20112;-77
2021/07/21 02:55:22;;;;;;;27.30;14.57;;;;;;;27.87;45.70;101336.19;3983059;32;15022727;-76
2021/07/21 02:57:53;;;;;;;28.85;14.55;;;;;;;27.77;45.98;101340.75;4439211;32;20076;-77
2021/07/21 03:00:25;;;;;;;28.92;15.35;;;;;;;27.81;45.90;101346.19;4439222;32;20468;-76
2021/07/21 03:02:53;;;;;;;34.22;15.85;;;;;;;27.65;46.34;101347.19;4439064;32;20431;-75
2021/07/21 03:05:23;;;;;;;35.63;15.13;;;;;;;27.68;46.42;101340.31;4438837;32;20092;-75
2021/07/21 03:07:52;;;;;;;29.42;15.15;;;;;;;27.74;46.19;101343.94;4430703;32;20509;-76
2021/07/21 03:10:18;;;;;;;31.85;16.55;;;;;;;27.84;46.03;101351.69;4434519;32;20059;-76
2021/07/21 03:12:55;;;;;;;34.08;15.40;;;;;;;27.50;46.84;101341.84;4430727;32;20026;-77
2021/07/21 03:15:24;;;;;;;33.55;15.23;;;;;;;27.76;46.13;101342.06;4436782;32;20177;-78
2021/07/21 03:17:53;;;;;;;37.10;16.02;;;;;;;27.74;46.33;101349.72;4438534;32;20064;-77
2021/07/21 03:20:21;;;;;;;32.80;16.65;;;;;;;27.57;46.40;101349.91;4437899;32;20082;-78
2021/07/21 03:22:48;;;;;;;30.83;16.08;;;;;;;27.34;46.87;101351.47;4439400;32;20095;-76
2021/07/21 03:25:15;;;;;;;30.60;16.15;;;;;;;27.76;46.13;101356.50;4440098;32;20033;-75
2021/07/21 03:27:42;;;;;;;32.50;17.40;;;;;;;27.62;46.32;101357.75;4442334;32;20237;-78
2021/07/21 03:30:11;;;;;;;30.98;15.13;;;;;;;27.58;46.47;101360.13;4438163;32;20106;-77
2021/07/21 03:32:39;;;;;;;33.95;17.65;;;;;;;27.51;46.72;101352.06;4439285;32;20041;-77
2021/07/21 03:35:06;;;;;;;40.72;17.25;;;;;;;27.57;46.70;101360.69;4437937;32;20111;-76
2021/07/21 03:37:34;;;;;;;32.85;17.25;;;;;;;27.47;46.80;101366.06;4437572;32;20022;-77
2021/07/21 03:40:04;;;;;;;34.53;17.95;;;;;;;27.29;47.34;101352.31;4439013;32;20163;-77
2021/07/21 03:42:31;;;;;;;39.05;18.25;;;;;;;27.39;47.15;101362.19;4437820;32;20059;-78
2021/07/21 03:45:01;;;;;;;34.13;17.37;;;;;;;27.35;47.20;101358.81;4438756;32;21370;-77
2021/07/21 03:47:27;;;;;;;37.13;19.10;;;;;;;27.49;46.97;101360.53;4439851;32;20429;-77
2021/07/21 03:49:54;;;;;;;38.95;19.92;;;;;;;27.31;47.37;101366.22;4433453;32;20343;-78
2021/07/21 03:52:21;;;;;;;36.08;19.35;;;;;;;27.34;47.33;101365.94;4439239;32;20029;-76
2021/07/21 03:54:47;;;;;;;39.05;19.45;;;;;;;27.41;47.10;101370.31;4440048;32;20104;-77
2021/07/21 03:57:16;;;;;;;50.70;21.50;;;;;;;27.56;46.88;101371.47;4433059;32;20063;-79
2021/07/21 03:59:42;;;;;;;44.63;20.83;;;;;;;27.57;46.57;101372.25;4437034;32;20069;-75
2021/07/21 04:02:10;;;;;;;40.95;20.65;;;;;;;27.56;46.59;101370.69;4438257;32;20813;-76
2021/07/21 04:04:40;;;;;;;43.80;21.65;;;;;;;27.87;46.10;101373.00;4436844;32;20727;-77
2021/07/21 04:07:08;;;;;;;46.13;20.85;;;;;;;28.03;45.69;101375.69;4427519;32;20037;-75
2021/07/21 04:09:35;;;;;;;39.83;19.80;;;;;;;28.01;45.77;101369.66;4428114;32;21170;-76
2021/07/21 04:12:01;;;;;;;39.50;21.33;;;;;;;28.04;45.75;101376.47;4426067;32;20025;-78
2021/07/21 04:14:28;;;;;;;40.55;21.00;;;;;;;27.98;45.74;101376.53;4429955;32;20065;-79
2021/07/21 04:16:55;;;;;;;46.22;22.08;;;;;;;28.00;45.46;101384.66;4428489;32;20384;-76
2021/07/21 04:19:22;;;;;;;38.13;20.40;;;;;;;28.16;45.31;101377.91;4427329;32;20034;-76
2021/07/21 04:21:51;;;;;;;40.58;21.98;;;;;;;28.07;45.23;101386.97;4426278;32;20034;-75
2021/07/21 04:24:18;;;;;;;49.30;23.92;;;;;;;27.95;45.67;101391.31;4429252;32;20088;-78
2021/07/21 04:26:45;;;;;;;41.40;22.55;;;;;;;27.85;45.79;101390.09;4428592;32;20052;-78
2021/07/21 04:29:13;;;;;;;42.03;22.40;;;;;;;27.49;46.66;101388.66;4430683;32;20337;-76
2021/07/21 04:31:44;;;;;;;48.08;23.98;;;;;;;27.85;45.90;101387.97;4426635;32;20017;-75
2021/07/21 04:34:12;;;;;;;43.25;22.52;;;;;;;27.78;46.22;101397.25;4429579;32;20030;-78
2021/07/21 04:36:40;;;;;;;44.13;22.73;;;;;;;27.81;46.11;101392.50;4428569;32;20147;-75
2021/07/21 04:39:07;;;;;;;48.22;24.08;;;;;;;27.83;45.94;101405.09;4428153;32;20102;-78
2021/07/21 04:41:34;;;;;;;45.88;24.33;;;;;;;27.30;46.93;101402.25;4427060;32;20077;-77
2021/07/21 04:44:02;;;;;;;48.78;25.98;;;;;;;27.58;46.38;101399.84;4427019;32;20082;-75
2021/07/21 04:46:31;;;;;;;49.78;25.62;;;;;;;27.23;47.06;101403.56;4427696;32;20055;-76
2021/07/21 04:48:57;;;;;;;56.97;28.12;;;;;;;27.57;46.28;101407.75;4428704;32;20327;-75
2021/07/21 04:51:27;;;;;;;60.15;28.10;;;;;;;27.36;46.61;101409.53;4425351;32;20073;-75
2021/07/21 04:53:56;;;;;;;52.22;26.37;;;;;;;27.46;46.29;101413.66;4426938;32;20120;-77
2021/07/21 04:56:23;;;;;;;53.28;28.52;;;;;;;27.59;46.10;101410.88;4426072;32;20038;-80
2021/07/21 04:58:48;;;;;;;54.35;29.30;;;;;;;27.56;46.07;101411.97;4428241;32;20084;-78
2021/07/21 05:01:15;;;;;;;53.40;28.20;;;;;;;27.30;46.74;101422.47;4426552;32;20455;-75
2021/07/21 05:03:40;;;;;;;61.35;28.23;;;;;;;27.48;46.23;101419.66;4428376;32;20100;-75
2021/07/21 05:06:06;;;;;;;56.15;27.65;;;;;;;27.06;47.23;101426.06;4427850;32;20096;-75
2021/07/21 05:08:33;;;;;;;57.33;28.23;;;;;;;27.12;47.00;101430.47;4426709;32;20433;-78
2021/07/21 05:10:59;;;;;;;57.60;29.33;;;;;;;27.20;47.02;101427.78;4423788;32;20142;-78
2021/07/21 05:13:25;;;;;;;54.47;28.02;;;;;;;27.34;46.67;101429.53;4426830;32;20099;-78
2021/07/21 05:15:50;;;;;;;53.92;27.13;;;;;;;27.60;46.00;101437.69;4426797;32;20056;-79
2021/07/21 05:18:16;;;;;;;55.88;25.98;;;;;;;27.66;45.72;101439.19;4427723;32;20080;-77
2021/07/21 05:20:43;;;;;;;53.47;26.83;;;;;;;27.93;45.10;101443.16;4425969;32;20245;-77
2021/07/21 05:23:09;;;;;;;53.78;26.95;;;;;;;28.20;44.53;101448.62;4429199;32;20470;-77
2021/07/21 05:25:37;;;;;;;51.70;25.92;;;;;;;28.05;44.65;101448.28;4424994;32;20088;-75
2021/07/21 05:28:06;;;;;;;52.28;26.02;;;;;;;28.24;44.20;101454.09;4427316;32;20134;-77
2021/07/21 05:30:32;;;;;;;52.97;26.50;;;;;;;28.39;43.92;101455.22;4426755;32;20046;-77
2021/07/21 05:32:58;;;;;;;52.78;25.40;;;;;;;28.31;43.98;101456.34;4427376;32;20021;-77
2021/07/21 05:35:24;;;;;;;54.95;27.10;;;;;;;28.39;43.74;101463.91;4422591;32;20060;-78
2021/07/21 05:37:50;;;;;;;53.38;25.12;;;;;;;28.37;43.76;101468.66;4426103;32;20127;-79
2021/07/21 05:40:15;;;;;;;47.67;24.37;;;;;;;28.63;43.26;101472.53;4426306;32;20146;-76
2021/07/21 05:42:41;;;;;;;51.88;24.90;;;;;;;28.60;43.32;101467.84;4428159;32;20037;-77
2021/07/21 05:45:07;;;;;;;53.50;25.95;;;;;;;28.57;42.99;101477.66;4426143;32;20544;-77
2021/07/21 05:47:33;;;;;;;46.05;24.83;;;;;;;28.20;43.73;101474.66;4428578;32;20155;-76
2021/07/21 05:49:58;;;;;;;48.17;24.27;;;;;;;28.56;43.17;101473.16;4424107;32;20069;-78
2021/07/21 05:52:24;;;;;;;45.12;23.30;;;;;;;28.75;42.72;101478.97;4425229;32;20527;-76
2021/07/21 05:54:51;;;;;;;47.35;24.55;;;;;;;28.86;42.59;101479.59;4425835;32;20017;-80
2021/07/21 05:57:16;;;;;;;46.67;24.92;;;;;;;28.80;42.45;101478.09;4425789;32;20126;-77
2021/07/21 05:59:42;;;;;;;48.83;24.35;;;;;;;28.75;42.34;101479.75;4425191;32;20033;-75
2021/07/21 06:02:08;;;;;;;48.63;24.60;;;;;;;28.73;42.48;101485.31;4426222;32;20090;-76
2021/07/21 06:04:33;;;;;;;46.95;25.00;;;;;;;28.77;42.37;101485.78;4426300;32;20030;-76
2021/07/21 06:07:00;;;;;;;49.28;24.58;;;;;;;28.89;42.07;101487.19;4425387;32;20533;-79
2021/07/21 06:09:26;;;;;;;48.08;24.75;;;;;;;29.13;41.67;101494.22;4423623;32;20034;-76
2021/07/21 06:11:52;;;;;;;53.00;24.23;;;;;;;28.50;42.89;101486.94;4423573;32;20113;-79
2021/07/21 06:14:18;;;;;;;41.85;22.83;;;;;;;29.00;41.78;101487.00;4425057;32;20512;-78
2021/07/21 06:16:44;;;;;;;48.90;24.52;;;;;;;29.11;41.61;101497.69;4424690;32;20045;-78
2021/07/21 06:19:09;;;;;;;42.92;23.90;;;;;;;29.04;41.37;101495.44;4423903;32;20030;-78
2021/07/21 06:21:35;;;;;;;49.67;25.42;;;;;;;28.67;42.24;101489.62;4426826;32;20449;-77
2021/07/21 06:24:01;;;;;;;48.58;25.42;;;;;;;28.88;41.91;101491.44;4427884;32;20460;-78
2021/07/21 06:26:26;;;;;;;44.70;23.85;;;;;;;28.94;41.80;101494.25;4427857;32;20519;-77
2021/07/21 06:28:53;;;;;;;42.25;22.90;;;;;;;29.23;41.29;101501.22;4425792;32;20056;-78
2021/07/21 06:31:18;;;;;;;44.05;23.42;;;;;;;29.26;40.93;101500.88;4425990;32;20118;-78
2021/07/21 06:33:44;;;;;;;44.72;24.48;;;;;;;29.56;40.49;101503.53;4426600;32;20511;-79
2021/07/21 06:36:10;;;;;;;41.10;23.48;;;;;;;29.60;40.16;101498.97;4424651;32;20033;-79
2021/07/21 06:38:36;;;;;;;48.00;24.55;;;;;;;29.80;39.95;101503.41;4425856;32;20026;-77
2021/07/21 06:41:03;;;;;;;46.70;23.25;;;;;;;29.70;40.14;101503.03;4422148;32;20030;-78
2021/07/21 06:43:28;;;;;;;47.70;23.92;;;;;;;29.43;40.47;101503.50;4426062;32;20123;-78
2021/07/21 06:45:54;;;;;;;43.13;22.83;;;;;;;29.72;39.99;101500.38;4425489;32;20093;-79
2021/07/21 06:48:20;;;;;;;42.70;24.55;;;;;;;29.68;40.07;101511.53;4427414;32;20073;-76
2021/07/21 06:50:45;;;;;;;39.47;24.33;;;;;;;29.71;39.96;101501.72;4425446;32;20386;-76
2021/07/21 06:53:11;;;;;;;47.28;24.55;;;;;;;29.64;40.16;101508.19;4426249;32;20037;-79
2021/07/21 06:55:37;;;;;;;45.28;24.70;;;;;;;29.58;40.12;101513.28;4426606;32;20126;-78
2021/07/21 06:58:03;;;;;;;42.33;23.62;;;;;;;29.67;39.97;101512.09;4424905;32;20055;-78
2021/07/21 07:00:30;;;;;;;43.60;23.15;;;;;;;29.56;40.12;101501.44;4424857;32;20125;-80
2021/07/21 07:02:56;;;;;;;40.58;22.42;;;;;;;29.51;40.25;101502.31;4425520;32;20049;-78
2021/07/21 07:05:22;;;;;;;48.97;24.10;;;;;;;29.30;40.58;101509.25;4423170;32;20148;-76
2021/07/21 07:07:47;;;;;;;44.42;24.17;;;;;;;29.44;40.43;101507.97;4422326;32;20041;-79
2021/07/21 07:10:13;;;;;;;41.25;24.60;;;;;;;29.31;40.66;101511.63;4425178;32;20037;-77
2021/07/21 07:12:40;;;;;;;66.45;34.25;;;;;;;29.57;40.16;101517.50;4419057;32;20402;-77
2021/07/21 07:15:07;;;;;;;47.72;26.67;;;;;;;29.67;39.95;101512.88;4421235;32;20119;-77
2021/07/21 07:17:33;;;;;;;74.43;37.83;;;;;;;29.80;39.62;101518.72;4425772;32;20037;-78
2021/07/21 07:20:00;;;;;;;72.35;37.10;;;;;;;29.93;39.64;101526.66;4423635;32;20065;-77
2021/07/21 07:22:26;;;;;;;51.20;29.77;;;;;;;29.86;39.60;101518.59;4425157;32;20122;-77
2021/07/21 07:24:52;;;;;;;52.70;26.52;;;;;;;29.87;39.59;101520.16;4423737;32;20357;-76
2021/07/21 07:27:18;;;;;;;47.00;24.35;;;;;;;30.04;39.30;101520.66;4426347;32;20096;-78
2021/07/21 07:29:43;;;;;;;47.65;25.55;;;;;;;30.23;38.82;101525.06;4424848;32;20033;-76
2021/07/21 07:32:09;;;;;;;45.78;24.45;;;;;;;30.29;38.95;101522.03;4424908;32;20037;-78
2021/07/21 07:34:35;;;;;;;55.78;25.20;;;;;;;30.69;37.91;101529.38;4425397;32;20089;-77
2021/07/21 07:37:04;;;;;;;46.95;24.17;;;;;;;30.77;37.99;101524.47;4425070;32;20056;-76
2021/07/21 07:39:29;;;;;;;45.35;23.55;;;;;;;30.91;37.75;101526.00;4424962;32;20107;-77
2021/07/21 07:41:59;;;;;;;44.85;24.05;;;;;;;30.94;37.76;101533.59;4428155;32;20425;-76
2021/07/21 07:44:24;;;;;;;48.08;24.48;;;;;;;30.63;38.20;101528.72;4429834;32;20120;-76
2021/07/21 07:46:50;;;;;;;45.45;24.08;;;;;;;30.90;37.75;101530.25;4430718;32;20082;-77
2021/07/21 07:49:16;;;;;;;38.58;22.58;;;;;;;30.98;37.61;101527.44;4427689;32;20054;-77
2021/07/21 07:51:42;;;;;;;38.78;22.10;;;;;;;31.32;36.71;101529.03;4426294;32;20067;-77
2021/07/21 07:54:08;;;;;;;47.05;23.20;;;;;;;31.65;36.08;101524.50;4420734;32;20120;-76
2021/07/21 07:56:34;;;;;;;49.15;26.05;;;;;;;31.32;36.77;101536.97;4424384;32;20038;-78
2021/07/21 07:59:00;;;;;;;42.90;24.52;;;;;;;31.62;36.21;101540.97;4418471;32;20076;-77
2021/07/21 08:01:26;;;;;;;41.37;22.92;;;;;;;31.90;35.80;101541.06;4426661;32;20073;-78
2021/07/21 08:03:52;;;;;;;47.53;24.12;;;;;;;31.93;35.69;101542.84;4427527;32;20038;-76
2021/07/21 08:06:17;;;;;;;46.75;23.75;;;;;;;32.33;34.65;101538.28;4426765;32;20061;-78
2021/07/21 08:08:43;;;;;;;41.95;25.25;;;;;;;32.41;34.64;101542.06;4425368;32;20025;-78
2021/07/21 08:11:12;;;;;;;42.65;23.87;;;;;;;32.58;34.26;101541.59;4424820;32;20080;-78
2021/07/21 08:13:39;;;;;;;47.03;25.37;;;;;;;32.60;34.01;101545.47;4425421;32;20100;-76
2021/07/21 08:16:05;;;;;;;51.58;26.77;;;;;;;32.29;34.52;101543.69;4426373;32;20087;-77
2021/07/21 08:18:31;;;;;;;45.08;25.60;;;;;;;32.12;34.68;101560.84;4428164;32;20152;-76
2021/07/21 08:20:57;;;;;;;49.25;26.25;;;;;;;32.05;34.81;101555.75;4426382;32;20048;-77
2021/07/21 08:23:23;;;;;;;48.90;26.52;;;;;;;32.04;34.99;101559.22;4426667;32;20456;-78
2021/07/21 08:25:48;;;;;;;42.22;25.27;;;;;;;31.66;35.86;101561.00;4426638;32;20034;-77
2021/07/21 08:28:14;;;;;;;52.10;26.05;;;;;;;32.29;34.76;101549.53;4425787;32;20013;-77
2021/07/21 08:30:43;;;;;;;45.63;25.60;;;;;;;32.38;34.42;101556.97;4428496;32;20092;-77
2021/07/21 08:33:09;;;;;;;50.97;25.65;;;;;;;32.70;34.08;101557.34;4426428;32;20087;-77
2021/07/21 08:35:35;;;;;;;46.03;24.15;;;;;;;32.62;34.17;101559.47;4425076;32;20089;-77
2021/07/21 08:38:02;;;;;;;47.78;25.48;;;;;;;32.90;33.78;101558.66;4423884;32;20041;-77
2021/07/21 08:40:30;;;;;;;45.92;25.52;;;;;;;32.72;34.02;101563.41;4428321;32;20095;-76
2021/07/21 08:42:56;;;;;;;47.42;24.08;;;;;;;32.82;33.94;101558.59;4428150;32;20144;-75
2021/07/21 08:45:22;;;;;;;45.85;24.70;;;;;;;32.98;33.64;101563.19;4425818;32;20130;-77
2021/07/21 08:47:48;;;;;;;48.00;26.37;;;;;;;32.92;33.63;101564.72;4424144;32;20045;-76
2021/07/21 08:50:14;;;;;;;46.72;25.52;;;;;;;32.34;34.49;101553.66;4424321;32;20060;-78
2021/07/21 08:52:40;;;;;;;40.03;23.08;;;;;;;32.40;34.25;101552.13;4424968;32;20033;-77
2021/07/21 08:55:09;;;;;;;44.17;24.30;;;;;;;33.08;33.08;101548.81;4427567;32;20928;-78
2021/07/21 08:57:37;;;;;;;41.60;22.90;;;;;;;33.61;32.37;101564.34;4422758;32;20057;-78
2021/07/21 09:00:08;;;;;;;38.92;22.60;;;;;;;33.79;32.06;101560.28;4425534;32;20426;-78
2021/07/21 09:02:36;;;;;;;38.90;21.95;;;;;;;34.31;31.10;101565.37;4428161;32;20029;-78
2021/07/21 09:05:03;;;;;;;38.05;21.02;;;;;;;34.67;30.38;101568.06;4427835;32;20063;-78
2021/07/21 09:07:29;;;;;;;36.50;19.52;;;;;;;34.53;30.46;101566.72;4427215;32;20064;-77
2021/07/21 09:09:54;;;;;;;39.03;22.15;;;;;;;34.57;30.42;101564.19;4425956;32;20060;-78
2021/07/21 09:12:20;;;;;;;38.88;20.85;;;;;;;34.25;30.74;101565.59;4426288;32;20029;-78
2021/07/21 09:14:46;;;;;;;38.00;20.52;;;;;;;34.24;30.70;101564.00;4426658;32;20069;-78
2021/07/21 09:17:16;;;;;;;43.25;22.30;;;;;;;34.47;30.64;101564.00;4429144;32;20060;-78
2021/07/21 09:19:44;;;;;;;35.97;22.70;;;;;;;34.85;30.20;101569.75;4420991;32;20399;-77
2021/07/21 09:22:12;;;;;;;39.72;22.83;;;;;;;34.21;31.23;101570.25;4426192;32;20458;-77
2021/07/21 09:24:38;;;;;;;40.00;20.55;;;;;;;34.44;30.88;101571.03;4423939;32;20084;-76
2021/07/21 09:27:04;;;;;;;37.45;22.10;;;;;;;34.76;30.26;101579.13;4422895;32;20108;-77
2021/07/21 09:29:30;;;;;;;39.20;22.15;;;;;;;34.52;30.57;101576.84;4425913;32;20461;-77
2021/07/21 09:32:01;;;;;;;32.85;19.12;;;;;;;34.99;29.99;101582.78;4424018;32;20186;-76
2021/07/21 09:34:26;;;;;;;39.00;20.88;;;;;;;35.44;29.31;101579.66;4424608;32;20022;-77
2021/07/21 09:37:01;;;;;;;39.28;21.27;;;;;;;35.14;29.64;101582.72;4424594;32;20067;-78
2021/07/21 09:39:32;;;;;;;35.28;19.52;;;;;;;35.80;28.82;101586.66;4427696;32;20014;-77
2021/07/21 09:41:58;;;;;;;38.55;20.17;;;;;;;35.79;29.01;101582.16;4422654;32;20439;-78
2021/07/21 09:44:41;;;;;;;37.47;20.50;;;;;;;35.88;28.83;101586.63;4426602;32;20105;-76
2021/07/21 09:47:17;;;;;;;37.25;20.23;;;;;;;36.42;27.91;101591.44;4425071;32;20095;-78
2021/07/21 09:49:45;;;;;;;36.20;20.35;;;;;;;36.50;27.74;101597.25;4426569;32;20089;-76
2021/07/21 09:52:25;;;;;;;38.33;21.25;;;;;;;36.53;27.86;101596.81;4420780;32;20461;-76
2021/07/21 09:55:13;;;;;;;35.60;19.05;;;;;;;35.43;29.37;101595.69;4421304;32;20102;-76
2021/07/21 09:57:40;;;;;;;34.25;18.77;;;;;;;35.59;29.33;101594.97;4423525;32;20056;-78
2021/07/21 10:00:26;;;;;;;34.30;19.45;;;;;;;35.73;29.29;101599.19;4422831;32;20476;-78
2021/07/21 10:03:07;;;;;;;36.30;20.15;;;;;;;36.12;28.55;101597.56;4423759;32;20038;-77
2021/07/21 10:05:33;;;;;;;35.25;19.50;;;;;;;35.75;28.89;101595.66;4425125;32;20052;-76
2021/07/21 10:08:02;;;;;;;39.08;20.02;;;;;;;35.67;29.17;101604.50;4425632;32;20430;-77
2021/07/21 10:10:29;;;;;;;44.30;20.58;;;;;;;36.08;28.73;101597.97;4416445;32;20587;-78
2021/07/21 10:13:06;;;;;;;34.67;19.42;;;;;;;36.22;28.55;101597.69;4423547;32;20060;-79
2021/07/21 10:15:33;;;;;;;38.25;20.58;;;;;;;36.83;27.85;101601.59;4424626;32;20102;-79
2021/07/21 10:18:16;;;;;;;46.17;24.02;;;;;;;37.17;27.39;101608.22;4422995;32;21218;-77
2021/07/21 10:20:43;;;;;;;50.35;24.90;;;;;;;38.04;26.07;101607.41;4424226;32;20422;-77
2021/07/21 10:23:11;;;;;;;43.08;21.80;;;;;;;37.54;26.54;101601.06;4424968;32;20026;-78
2021/07/21 10:25:38;;;;;;;43.80;22.02;;;;;;;37.68;26.65;101607.38;4426229;32;20153;-76
2021/07/21 10:28:04;;;;;;;34.47;19.35;;;;;;;37.80;26.42;101602.50;4425266;32;20113;-78
2021/07/21 10:30:32;;;;;;;40.55;19.85;;;;;;;37.96;26.26;101609.66;4422573;32;20129;-77
2021/07/21 10:32:59;;;;;;;30.20;16.52;;;;;;;37.85;26.26;101610.22;4424540;32;20506;-77
2021/07/21 10:35:28;;;;;;;31.30;16.20;;;;;;;38.11;26.16;101618.28;4425562;32;20038;-77
2021/07/21 10:37:55;;;;;;;31.95;16.75;;;;;;;38.59;25.50;101612.56;4426606;32;20407;-79
2021/07/21 10:40:25;;;;;;;38.72;18.33;;;;;;;38.97;24.97;101607.50;4423291;32;20076;-78
2021/07/21 10:42:54;;;;;;;35.45;17.95;;;;;;;39.05;24.95;101610.28;4424467;32;20150;-77
2021/07/21 10:45:22;;;;;;;35.80;17.20;;;;;;;38.59;25.34;101606.66;4426936;32;20333;-77
2021/07/21 10:47:51;;;;;;;28.73;17.58;;;;;;;38.95;25.01;101607.31;4424785;32;20106;-78
2021/07/21 10:50:44;;;;;;;29.10;17.87;;;;;;;39.08;24.76;101612.75;4424650;32;20052;-79
2021/07/21 10:59:17;;;;;;;28.25;17.12;;;;;;;40.20;23.77;101599.75;3982950;32;15072850;-79
2021/07/21 11:01:45;;;;;;;31.02;15.35;;;;;;;40.20;23.77;101599.75;4434548;32;20496;-77
2021/07/21 11:04:11;;;;;;;27.58;16.17;;;;;;;40.49;23.30;101602.56;4431012;32;20065;-78
2021/07/21 11:06:40;;;;;;;32.33;17.08;;;;;;;40.31;23.24;101598.34;4430564;32;20064;-81
2021/07/21 11:09:31;;;;;;;29.05;15.45;;;;;;;40.54;23.09;101598.47;4432342;32;20381;-82
2021/07/21 11:11:58;;;;;;;21.50;14.25;;;;;;;40.94;22.63;101602.09;4428649;32;20026;-81
2021/07/21 11:14:28;;;;;;;27.55;15.02;;;;;;;40.91;22.86;101602.56;4430360;32;20461;-77
2021/07/21 11:17:09;;;;;;;31.92;16.67;;;;;;;40.91;22.58;101600.41;4430654;32;20072;-80
2021/07/21 11:19:51;;;;;;;30.55;15.48;;;;;;;41.03;22.37;101604.19;4430518;32;20103;-78
2021/07/21 11:25:16;;;;;;;24.65;14.38;;;;;;;43.07;20.58;101604.09;3980176;32;15023439;-78
2021/07/21 11:33:55;;;;;;;22.85;13.60;;;;;;;43.38;20.12;101591.84;3983216;32;15025487;-77
2021/07/21 11:42:09;;;;;;;24.15;14.52;;;;;;;43.53;20.02;101594.22;3970443;32;15023000;-79
2021/07/21 11:44:39;;;;;;;27.17;12.98;;;;;;;43.53;20.02;101594.22;4428874;32;20042;-81
2021/07/21 11:47:11;;;;;;;18.35;12.27;;;;;;;43.37;19.97;101596.25;4425945;32;20029;-76
2021/07/21 11:49:37;;;;;;;23.12;14.40;;;;;;;43.46;20.09;101592.31;4426843;32;20065;-77
2021/07/21 11:52:06;;;;;;;25.62;14.55;;;;;;;43.13;20.21;101588.88;4425508;32;20129;-79
2021/07/21 11:54:34;;;;;;;27.05;13.93;;;;;;;43.16;20.22;101594.28;4428854;32;20087;-77
2021/07/21 11:57:03;;;;;;;18.73;11.27;;;;;;;43.03;20.44;101583.88;4425799;32;20018;-78